createdAt,value
2023-04-18T00:01:44.548Z,100.00
2023-04-18T00:04:12.430Z,100.00
2023-04-18T00:06:39.993Z,100.00
2023-04-18T00:09:06.693Z,100.00
2023-04-18T00:11:34.339Z,100.00
2023-04-18T00:14:00.973Z,100.00
2023-04-18T00:16:28.318Z,100.00
2023-04-18T00:18:55.443Z,100.00
2023-04-18T00:21:22.667Z,100.00
2023-04-18T00:23:49.328Z,100.00
2023-04-18T00:26:15.940Z,100.00
2023-04-18T00:28:42.542Z,100.00
2023-04-18T00:31:09.280Z,100.00
2023-04-18T00:33:35.914Z,100.00
2023-04-18T00:36:02.576Z,100.00
2023-04-18T00:38:29.183Z,100.00
2023-04-18T00:40:55.830Z,100.00
2023-04-18T00:43:23.868Z,100.00
2023-04-18T00:45:50.691Z,100.00
2023-04-18T00:48:17.615Z,100.00
2023-04-18T00:50:44.549Z,100.00
2023-04-18T00:53:11.184Z,100.00
2023-04-18T00:55:38.695Z,100.00
2023-04-18T00:58:06.227Z,100.00
2023-04-18T01:00:32.976Z,100.00
2023-04-18T01:02:59.802Z,100.00
2023-04-18T01:05:27.031Z,100.00
2023-04-18T01:07:58.677Z,100.00
2023-04-18T01:10:25.522Z,100.00
2023-04-18T01:13:10.150Z,100.00
2023-04-18T01:15:37.102Z,100.00
2023-04-18T01:18:03.885Z,100.00
2023-04-18T01:20:31.303Z,100.00
2023-04-18T01:22:58.233Z,100.00
2023-04-18T01:25:24.941Z,100.00
2023-04-18T01:27:51.646Z,100.00
2023-04-18T01:30:18.378Z,100.00
2023-04-18T01:32:48.075Z,100.00
2023-04-18T01:35:14.697Z,100.00
2023-04-18T01:37:41.333Z,100.00
2023-04-18T01:40:08.674Z,100.00
2023-04-18T01:42:35.327Z,100.00
2023-04-18T01:45:02.033Z,100.00
2023-04-18T01:47:28.648Z,100.00
2023-04-18T01:49:55.618Z,100.00
2023-04-18T01:52:22.307Z,100.00
2023-04-18T01:54:48.936Z,100.00
2023-04-18T01:57:15.511Z,100.00
2023-04-18T01:59:42.121Z,100.00
2023-04-18T02:02:08.797Z,100.00
2023-04-18T02:04:35.841Z,100.00
2023-04-18T02:07:02.503Z,100.00
2023-04-18T02:09:29.135Z,100.00
2023-04-18T02:11:59.268Z,100.00
2023-04-18T02:14:27.224Z,100.00
2023-04-18T02:16:53.871Z,100.00
2023-04-18T02:19:20.543Z,100.00
2023-04-18T02:21:47.136Z,100.00
2023-04-18T02:24:13.891Z,100.00
2023-04-18T02:26:40.760Z,100.00
2023-04-18T02:29:07.460Z,100.00
2023-04-18T02:31:34.139Z,100.00
2023-04-18T02:34:00.769Z,100.00
2023-04-18T02:36:28.208Z,100.00
2023-04-18T02:38:55.036Z,100.00
2023-04-18T02:41:21.758Z,100.00
2023-04-18T02:43:48.410Z,100.00
2023-04-18T02:46:15.210Z,100.00
2023-04-18T02:48:41.942Z,100.00
2023-04-18T02:51:08.896Z,100.00
2023-04-18T02:53:35.620Z,100.00
2023-04-18T02:56:03.302Z,100.00
2023-04-18T02:58:30.036Z,100.00
2023-04-18T03:00:56.866Z,100.00
2023-04-18T03:03:23.571Z,100.00
2023-04-18T03:05:50.327Z,100.00
2023-04-18T03:08:17.028Z,100.00
2023-04-18T03:10:43.721Z,100.00
2023-04-18T03:13:10.371Z,100.00
2023-04-18T03:15:37.420Z,100.00
2023-04-18T03:18:05.740Z,100.00
2023-04-18T03:20:32.446Z,100.00
2023-04-18T03:22:59.094Z,100.00
2023-04-18T03:25:25.836Z,100.00
2023-04-18T03:27:52.449Z,100.00
2023-04-18T03:30:19.058Z,100.00
2023-04-18T03:32:46.661Z,100.00
2023-04-18T03:35:13.437Z,100.00
2023-04-18T03:37:40.040Z,100.00
2023-04-18T03:40:07.140Z,100.00
2023-04-18T03:42:33.794Z,100.00
2023-04-18T03:45:00.400Z,100.00
2023-04-18T03:47:27.021Z,100.00
2023-04-18T03:49:54.458Z,100.00
2023-04-18T03:52:21.071Z,100.00
2023-04-18T03:54:47.836Z,100.00
2023-04-18T03:57:14.754Z,100.00
2023-04-18T03:59:41.807Z,100.00
2023-04-18T04:02:08.530Z,100.00
2023-04-18T04:04:35.399Z,100.00
2023-04-18T04:07:02.174Z,100.00
2023-04-18T04:09:28.890Z,100.00
2023-04-18T04:11:55.525Z,100.00
2023-04-18T04:14:22.892Z,100.00
2023-04-18T04:16:49.581Z,100.00
2023-04-18T04:19:16.336Z,100.00
2023-04-18T04:21:42.953Z,100.00
2023-04-18T04:24:09.615Z,100.00
2023-04-18T04:26:36.307Z,100.00
2023-04-18T04:29:03.658Z,100.00
2023-04-18T04:31:30.310Z,100.00
2023-04-18T04:33:56.956Z,100.00
2023-04-18T04:36:24.849Z,100.00
2023-04-18T04:38:52.392Z,100.00
2023-04-18T04:41:19.175Z,100.00
2023-04-18T04:43:46.679Z,100.00
2023-04-18T04:46:13.882Z,100.00
2023-04-18T04:48:40.872Z,100.00
2023-04-18T04:51:07.618Z,100.00
2023-04-18T04:53:34.427Z,100.00
2023-04-18T04:56:01.098Z,100.00
2023-04-18T04:58:28.144Z,100.00
2023-04-18T05:00:55.008Z,100.00
2023-04-18T05:03:22.123Z,100.00
2023-04-18T05:05:49.079Z,100.00
2023-04-18T05:08:15.847Z,100.00
2023-04-18T05:10:43.595Z,100.00
2023-04-18T05:13:10.373Z,100.00
2023-04-18T05:15:37.589Z,100.00
2023-04-18T05:18:04.543Z,100.00
2023-04-18T05:20:31.243Z,100.00
2023-04-18T05:22:57.947Z,100.00
2023-04-18T05:25:24.654Z,100.00
2023-04-18T05:27:52.546Z,100.00
2023-04-18T05:30:19.579Z,100.00
2023-04-18T05:32:46.326Z,100.00
2023-04-18T05:35:13.099Z,100.00
2023-04-18T05:37:39.812Z,100.00
2023-04-18T05:40:09.024Z,100.00
2023-04-18T05:42:35.863Z,100.00
2023-04-18T05:45:02.717Z,100.00
2023-04-18T05:47:30.405Z,100.00
2023-04-18T05:49:57.173Z,100.00
2023-04-18T05:52:25.744Z,100.00
2023-04-18T05:54:53.149Z,100.00
2023-04-18T05:57:19.869Z,100.00
2023-04-18T05:59:46.582Z,100.00
2023-04-18T06:02:13.781Z,100.00
2023-04-18T06:04:45.178Z,100.00
2023-04-18T06:07:12.128Z,100.00
2023-04-18T06:09:38.837Z,100.00
2023-04-18T06:12:05.826Z,100.00
2023-04-18T06:14:32.537Z,100.00
2023-04-18T06:16:59.669Z,100.00
2023-04-18T06:19:26.277Z,100.00
2023-04-18T06:21:53.394Z,100.00
2023-04-18T06:24:20.303Z,100.00
2023-04-18T06:26:47.410Z,100.00
2023-04-18T06:29:14.035Z,100.00
2023-04-18T06:31:42.204Z,100.00
2023-04-18T06:34:09.024Z,100.00
2023-04-18T06:36:36.344Z,100.00
2023-04-18T06:39:03.477Z,100.00
2023-04-18T06:41:30.123Z,100.00
2023-04-18T06:44:02.782Z,100.00
2023-04-18T06:46:30.837Z,100.00
2023-04-18T06:48:57.691Z,100.00
2023-04-18T06:51:24.322Z,100.00
2023-04-18T06:53:53.078Z,100.00
2023-04-18T06:56:20.809Z,100.00
2023-04-18T06:58:48.020Z,100.00
2023-04-18T07:01:14.812Z,100.00
2023-04-18T07:03:41.628Z,100.00
2023-04-18T07:06:10.594Z,100.00
2023-04-18T07:08:37.312Z,100.00
2023-04-18T07:11:04.094Z,99.99
2023-04-18T07:13:30.812Z,100.00
2023-04-18T07:15:57.593Z,100.00
2023-04-18T07:18:36.731Z,100.00
2023-04-18T07:21:07.524Z,100.00
2023-04-18T07:23:34.754Z,100.00
2023-04-18T07:26:02.839Z,100.00
2023-04-18T07:28:30.903Z,100.00
2023-04-18T07:30:57.768Z,100.00
2023-04-18T07:33:24.861Z,100.00
2023-04-18T07:35:52.416Z,100.00
2023-04-18T07:38:19.118Z,100.00
2023-04-18T07:40:45.812Z,100.00
2023-04-18T07:43:12.435Z,100.00
2023-04-18T07:45:39.244Z,100.00
2023-04-18T07:48:06.282Z,100.00
2023-04-18T07:50:32.941Z,100.00
2023-04-18T07:52:59.674Z,100.00
2023-04-18T07:55:26.884Z,100.00
2023-04-18T07:57:53.601Z,100.00
2023-04-18T08:00:20.519Z,100.00
2023-04-18T08:02:47.453Z,100.00
2023-04-18T08:05:14.155Z,100.00
2023-04-18T08:07:40.883Z,100.00
2023-04-18T08:10:07.973Z,100.00
2023-04-18T08:12:36.300Z,100.00
2023-04-18T08:15:03.881Z,100.00
2023-04-18T08:17:31.095Z,100.00
2023-04-18T08:19:57.743Z,100.00
2023-04-18T08:22:24.375Z,100.00
2023-04-18T08:25:03.692Z,100.00
2023-04-18T08:27:32.248Z,100.00
2023-04-18T08:29:58.928Z,100.00
2023-04-18T08:32:25.794Z,100.00
2023-04-18T08:34:52.456Z,100.00
2023-04-18T08:37:19.111Z,100.00
2023-04-18T08:39:45.748Z,100.00
2023-04-18T08:42:16.271Z,100.00
2023-04-18T08:44:43.131Z,100.00
2023-04-18T08:47:09.952Z,100.00
2023-04-18T08:49:36.536Z,100.00
2023-04-18T08:52:09.735Z,100.00
2023-04-18T08:54:37.262Z,100.00
2023-04-18T08:57:07.715Z,100.00
2023-04-18T08:59:35.735Z,100.00
2023-04-18T09:02:04.177Z,100.00
2023-04-18T09:04:35.269Z,100.00
2023-04-18T09:07:03.521Z,100.00
2023-04-18T09:09:47.319Z,100.00
2023-04-18T09:12:19.631Z,100.00
2023-04-18T09:14:47.139Z,100.00
2023-04-18T09:17:18.217Z,100.00
2023-04-18T09:19:49.007Z,100.00
2023-04-18T09:22:17.054Z,100.00
2023-04-18T09:24:53.275Z,100.00
2023-04-18T09:27:22.797Z,100.00
2023-04-18T09:29:54.756Z,100.00
2023-04-18T09:32:26.844Z,100.00
2023-04-18T09:34:58.720Z,100.00
2023-04-18T09:37:26.227Z,100.00
2023-04-18T09:39:53.099Z,100.00
2023-04-18T09:42:20.241Z,100.00
2023-04-18T09:45:06.056Z,100.00
2023-04-18T09:47:37.497Z,100.00
2023-04-18T09:50:05.405Z,100.00
2023-04-18T09:52:39.451Z,100.00
2023-04-18T09:55:11.324Z,100.00
2023-04-18T09:57:41.753Z,100.00
2023-04-18T10:00:24.258Z,100.00
2023-04-18T10:03:10.890Z,96.37
2023-04-18T10:05:39.881Z,93.42
2023-04-18T10:08:07.124Z,93.69
2023-04-18T10:10:33.884Z,98.67
2023-04-18T10:13:02.123Z,96.63
2023-04-18T10:15:29.747Z,93.67
2023-04-18T10:18:05.333Z,94.99
2023-04-18T10:20:34.656Z,97.06
2023-04-18T10:23:34.931Z,97.16
2023-04-18T10:26:03.120Z,93.44
2023-04-18T10:28:49.527Z,93.14
2023-04-18T10:31:16.641Z,92.25
2023-04-18T10:34:03.296Z,94.73
2023-04-18T10:36:31.126Z,97.70
2023-04-18T10:39:23.308Z,92.23
2023-04-18T10:41:51.192Z,91.25
2023-04-18T10:44:23.203Z,94.13
2023-04-18T10:46:53.421Z,95.88
2023-04-18T10:49:28.874Z,91.55
2023-04-18T10:52:01.271Z,97.91
2023-04-18T10:54:47.796Z,90.09
2023-04-18T10:57:15.264Z,92.64
2023-04-18T10:59:44.540Z,90.04
2023-04-18T11:02:32.625Z,90.68
2023-04-18T11:05:01.934Z,86.41
2023-04-18T11:07:40.765Z,83.95
2023-04-18T11:10:09.290Z,86.83
2023-04-18T11:12:37.694Z,84.53
2023-04-18T11:15:12.988Z,82.27
2023-04-18T11:17:40.288Z,82.28
2023-04-18T11:20:13.608Z,79.77
2023-04-18T11:22:44.008Z,78.54
2023-04-18T11:25:11.234Z,80.31
2023-04-18T11:27:37.958Z,81.48
2023-04-18T11:30:05.443Z,78.03
2023-04-18T11:32:34.272Z,81.11
2023-04-18T11:35:01.159Z,74.86
2023-04-18T11:37:27.813Z,82.38
2023-04-18T11:39:54.473Z,77.68
2023-04-18T11:42:27.760Z,76.94
2023-04-18T11:44:54.547Z,81.93
2023-04-18T11:47:34.001Z,77.22
2023-04-18T11:50:02.395Z,82.42
2023-04-18T11:52:30.829Z,77.76
2023-04-18T11:55:18.597Z,82.57
2023-04-18T11:57:52.937Z,80.66
2023-04-18T12:00:22.489Z,79.98
2023-04-18T12:02:50.942Z,85.92
2023-04-18T12:05:29.246Z,78.58
2023-04-18T12:07:56.634Z,75.60
2023-04-18T12:10:26.154Z,75.99
2023-04-18T12:12:54.193Z,78.79
2023-04-18T12:15:23.945Z,79.24
2023-04-18T12:17:53.504Z,78.47
2023-04-18T12:20:20.217Z,80.39
2023-04-18T12:22:50.630Z,76.21
2023-04-18T12:25:27.368Z,75.62
2023-04-18T12:27:59.381Z,75.44
2023-04-18T12:30:27.884Z,76.50
2023-04-18T12:32:56.839Z,77.45
2023-04-18T12:35:23.973Z,83.44
2023-04-18T12:37:52.288Z,80.31
2023-04-18T12:40:19.646Z,80.86
2023-04-18T12:42:47.683Z,78.10
2023-04-18T12:45:15.216Z,77.69
2023-04-18T12:47:43.080Z,75.06
2023-04-18T12:50:11.654Z,75.17
2023-04-18T12:52:40.068Z,77.19
2023-04-18T12:55:07.689Z,78.47
2023-04-18T12:57:34.350Z,75.16
2023-04-18T13:00:01.303Z,74.73
2023-04-18T13:02:29.247Z,75.54
2023-04-18T13:04:56.534Z,74.42
2023-04-18T13:07:23.233Z,74.86
2023-04-18T13:09:49.910Z,72.54
2023-04-18T13:12:16.658Z,73.92
2023-04-18T13:14:43.289Z,72.85
2023-04-18T13:17:09.922Z,70.10
2023-04-18T13:19:36.550Z,68.51
2023-04-18T13:22:03.167Z,69.50
2023-04-18T13:24:29.797Z,72.39
2023-04-18T13:26:56.589Z,69.67
2023-04-18T13:29:33.116Z,66.98
2023-04-18T13:31:59.779Z,66.03
2023-04-18T13:34:26.441Z,66.95
2023-04-18T13:36:53.100Z,65.14
2023-04-18T13:39:20.457Z,64.48
2023-04-18T13:41:47.344Z,63.97
2023-04-18T13:44:14.228Z,66.56
2023-04-18T13:46:41.169Z,65.32
2023-04-18T13:49:07.804Z,68.06
2023-04-18T13:51:34.550Z,67.98
2023-04-18T13:54:01.725Z,69.29
2023-04-18T13:56:28.383Z,67.62
2023-04-18T13:58:55.582Z,66.85
2023-04-18T14:01:22.356Z,67.24
2023-04-18T14:03:50.127Z,70.28
2023-04-18T14:06:17.005Z,65.19
2023-04-18T14:08:43.806Z,63.50
2023-04-18T14:11:10.457Z,61.86
2023-04-18T14:13:37.153Z,61.19
2023-04-18T14:16:03.859Z,61.88
2023-04-18T14:18:30.452Z,63.86
2023-04-18T14:20:57.094Z,65.72
2023-04-18T14:23:23.849Z,60.58
2023-04-18T14:25:50.719Z,62.38
2023-04-18T14:28:19.066Z,61.57
2023-04-18T14:30:45.794Z,62.80
2023-04-18T14:33:12.613Z,62.89
2023-04-18T14:35:39.258Z,64.30
2023-04-18T14:38:05.930Z,64.55
2023-04-18T14:40:33.344Z,56.97
2023-04-18T14:43:00.050Z,58.97
2023-04-18T14:45:26.666Z,58.46
2023-04-18T14:47:55.523Z,58.15
2023-04-18T14:50:23.502Z,57.85
2023-04-18T14:52:51.079Z,55.02
2023-04-18T14:55:19.422Z,60.07
2023-04-18T14:57:46.525Z,52.89
2023-04-18T15:00:14.680Z,57.96
2023-04-18T15:02:41.849Z,53.85
2023-04-18T15:05:09.244Z,53.26
2023-04-18T15:07:39.064Z,56.15
2023-04-18T15:10:06.207Z,57.83
2023-04-18T15:12:32.910Z,58.66
2023-04-18T15:14:59.884Z,59.20
2023-04-18T15:17:26.514Z,60.87
2023-04-18T15:19:53.200Z,62.60
2023-04-18T15:22:19.847Z,63.43
2023-04-18T15:24:47.406Z,65.63
2023-04-18T15:27:14.025Z,62.98
2023-04-18T15:29:40.986Z,64.57
2023-04-18T15:32:08.023Z,65.42
2023-04-18T15:34:34.728Z,64.69
2023-04-18T15:37:02.326Z,68.18
2023-04-18T15:39:28.933Z,66.06
2023-04-18T15:41:55.653Z,68.37
2023-04-18T15:44:22.690Z,69.73
2023-04-18T15:46:49.416Z,71.69
2023-04-18T15:49:16.057Z,70.21
2023-04-18T15:51:42.702Z,70.63
2023-04-18T15:54:09.402Z,72.39
2023-04-18T15:56:36.895Z,74.40
2023-04-18T15:59:04.950Z,73.06
2023-04-18T16:01:32.249Z,76.21
2023-04-18T16:03:59.044Z,74.49
2023-04-18T16:06:26.566Z,76.01
2023-04-18T16:08:53.272Z,74.93
2023-04-18T16:11:21.032Z,75.31
2023-04-18T16:13:47.703Z,74.30
2023-04-18T16:16:14.477Z,74.33
2023-04-18T16:18:44.151Z,73.84
2023-04-18T16:21:16.188Z,75.98
2023-04-18T16:23:43.069Z,74.49
2023-04-18T16:26:09.690Z,75.19
2023-04-18T16:28:37.741Z,73.59
2023-04-18T16:31:05.980Z,75.83
2023-04-18T16:33:32.794Z,74.89
2023-04-18T16:36:02.514Z,76.17
2023-04-18T16:38:29.302Z,73.73
2023-04-18T16:40:57.361Z,72.97
2023-04-18T16:43:26.788Z,76.21
2023-04-18T16:45:56.387Z,75.42
2023-04-18T16:48:27.278Z,78.57
2023-04-18T16:50:53.882Z,79.14
2023-04-18T16:53:21.948Z,79.14
2023-04-18T16:55:50.400Z,76.40
2023-04-18T16:58:17.088Z,77.58
2023-04-18T17:00:43.680Z,78.42
2023-04-18T17:03:10.404Z,76.82
2023-04-18T17:05:39.355Z,76.83
2023-04-18T17:08:06.879Z,79.81
2023-04-18T17:10:33.905Z,79.45
2023-04-18T17:13:02.286Z,78.74
2023-04-18T17:15:29.078Z,80.26
2023-04-18T17:18:00.573Z,77.66
2023-04-18T17:20:28.282Z,78.92
2023-04-18T17:22:55.268Z,78.60
2023-04-18T17:25:21.893Z,78.63
2023-04-18T17:27:48.625Z,74.12
2023-04-18T17:30:15.329Z,72.19
2023-04-18T17:32:45.801Z,71.52
2023-04-18T17:35:14.683Z,75.18
2023-04-18T17:37:42.433Z,71.62
2023-04-18T17:40:10.121Z,71.07
2023-04-18T17:42:36.897Z,72.82
2023-04-18T17:45:05.311Z,70.28
2023-04-18T17:47:33.500Z,75.58
2023-04-18T17:50:00.911Z,72.60
2023-04-18T17:52:30.622Z,70.90
2023-04-18T17:54:58.155Z,73.20
2023-04-18T17:57:26.629Z,72.28
2023-04-18T17:59:53.631Z,75.60
2023-04-18T18:02:20.448Z,77.23
2023-04-18T18:04:47.240Z,77.34
2023-04-18T18:07:14.038Z,76.23
2023-04-18T18:09:44.511Z,78.03
2023-04-18T18:12:11.463Z,78.55
2023-04-18T18:14:40.069Z,80.20
2023-04-18T18:17:06.745Z,79.71
2023-04-18T18:19:35.931Z,80.24
2023-04-18T18:22:02.596Z,83.22
2023-04-18T18:24:29.289Z,81.53
2023-04-18T18:26:56.840Z,82.10
2023-04-18T18:29:23.538Z,83.25
2023-04-18T18:31:50.425Z,84.52
2023-04-18T18:34:17.215Z,86.16
2023-04-18T18:36:43.838Z,86.09
2023-04-18T18:39:11.170Z,87.39
2023-04-18T18:41:37.973Z,89.15
2023-04-18T18:44:04.801Z,88.13
2023-04-18T18:46:31.543Z,88.85
2023-04-18T18:48:58.141Z,90.02
2023-04-18T18:51:24.978Z,90.89
2023-04-18T18:53:51.598Z,92.26
2023-04-18T18:56:18.279Z,92.05
2023-04-18T18:58:44.922Z,93.43
2023-04-18T19:01:11.575Z,93.80
2023-04-18T19:03:38.533Z,95.48
2023-04-18T19:06:07.082Z,96.13
2023-04-18T19:08:34.099Z,97.76
2023-04-18T19:11:00.749Z,99.14
2023-04-18T19:13:27.341Z,99.81
2023-04-18T19:15:54.023Z,100.00
2023-04-18T19:18:21.363Z,100.00
2023-04-18T19:20:49.745Z,100.00
2023-04-18T19:23:17.335Z,100.00
2023-04-18T19:25:44.936Z,100.00
2023-04-18T19:28:12.840Z,100.00
2023-04-18T19:30:39.539Z,100.00
2023-04-18T19:33:06.229Z,100.00
2023-04-18T19:35:32.863Z,100.00
2023-04-18T19:38:02.217Z,100.00
2023-04-18T19:40:29.108Z,100.00
2023-04-18T19:42:55.687Z,100.00
2023-04-18T19:45:22.313Z,100.00
2023-04-18T19:47:49.030Z,100.00
2023-04-18T19:50:15.759Z,100.00
2023-04-18T19:52:42.514Z,100.00
2023-04-18T19:55:09.794Z,100.00
2023-04-18T19:57:39.092Z,100.00
2023-04-18T20:00:08.167Z,100.00
2023-04-18T20:02:35.015Z,100.00
2023-04-18T20:05:01.883Z,100.00
2023-04-18T20:07:28.744Z,100.00
2023-04-18T20:09:55.436Z,100.00
2023-04-18T20:12:22.232Z,100.00
2023-04-18T20:14:48.856Z,100.00
2023-04-18T20:17:15.690Z,100.00
2023-04-18T20:19:42.448Z,98.12
2023-04-18T20:22:09.111Z,94.11
2023-04-18T20:24:35.762Z,93.89
2023-04-18T20:27:03.402Z,92.07
2023-04-18T20:29:30.084Z,93.60
2023-04-18T20:31:56.831Z,88.28
2023-04-18T20:34:23.698Z,89.14
2023-04-18T20:36:52.385Z,88.04
2023-04-18T20:39:19.561Z,86.66
2023-04-18T20:41:51.166Z,89.49
2023-04-18T20:44:21.728Z,87.64
2023-04-18T20:46:48.479Z,91.87
2023-04-18T20:49:15.474Z,90.82
2023-04-18T20:51:42.327Z,90.03
2023-04-18T20:54:08.928Z,89.59
2023-04-18T20:56:38.665Z,90.92
2023-04-18T20:59:05.408Z,88.79
2023-04-18T21:01:32.062Z,90.89
2023-04-18T21:03:59.468Z,90.76
2023-04-18T21:06:28.303Z,91.60
2023-04-18T21:08:55.066Z,91.96
2023-04-18T21:11:21.778Z,91.60
2023-04-18T21:13:48.428Z,94.70
2023-04-18T21:16:15.173Z,94.81
2023-04-18T21:18:41.851Z,93.54
2023-04-18T21:21:09.025Z,94.89
2023-04-18T21:23:41.817Z,95.50
2023-04-18T21:26:13.228Z,97.11
2023-04-18T21:28:53.359Z,97.95
2023-04-18T21:31:20.018Z,97.04
2023-04-18T21:33:46.666Z,97.86
2023-04-18T21:36:13.315Z,96.54
2023-04-18T21:38:40.021Z,96.13
2023-04-18T21:41:06.750Z,96.47
2023-04-18T21:43:33.413Z,96.45
2023-04-18T21:46:00.251Z,97.86
2023-04-18T21:48:26.932Z,99.38
2023-04-18T21:50:54.870Z,98.37
2023-04-18T21:53:21.501Z,97.99
2023-04-18T21:55:48.148Z,96.84
2023-04-18T21:58:14.798Z,98.81
2023-04-18T22:00:41.475Z,99.20
2023-04-18T22:03:08.893Z,98.55
2023-04-18T22:05:37.111Z,95.84
2023-04-18T22:08:03.877Z,96.93
2023-04-18T22:10:31.012Z,95.83
2023-04-18T22:12:58.428Z,93.39
2023-04-18T22:15:26.879Z,92.15
2023-04-18T22:17:54.253Z,93.23
2023-04-18T22:20:21.587Z,90.36
2023-04-18T22:22:48.234Z,91.36
2023-04-18T22:25:14.841Z,94.35
2023-04-18T22:27:43.021Z,92.25
2023-04-18T22:30:10.078Z,90.07
2023-04-18T22:32:37.681Z,90.84
2023-04-18T22:35:04.804Z,92.26
2023-04-18T22:37:31.423Z,89.99
2023-04-18T22:39:58.032Z,88.04
2023-04-18T22:42:24.616Z,89.48
2023-04-18T22:44:51.250Z,91.06
2023-04-18T22:47:17.892Z,89.23
2023-04-18T22:49:44.541Z,87.75
2023-04-18T22:52:11.911Z,87.53
2023-04-18T22:54:39.202Z,89.39
2023-04-18T22:57:05.820Z,91.41
2023-04-18T22:59:32.451Z,90.18
2023-04-18T23:01:59.277Z,89.91
2023-04-18T23:04:29.883Z,91.81
2023-04-18T23:06:56.748Z,90.18
2023-04-18T23:09:24.451Z,91.34
2023-04-18T23:11:51.195Z,91.87
2023-04-18T23:14:17.888Z,92.81
2023-04-18T23:16:44.632Z,92.29
2023-04-18T23:19:11.270Z,94.51
2023-04-18T23:21:37.944Z,92.27
2023-04-18T23:24:04.670Z,93.61
2023-04-18T23:26:31.297Z,93.23
2023-04-18T23:28:57.939Z,91.33
2023-04-18T23:31:24.701Z,91.18
2023-04-18T23:33:51.392Z,92.16
2023-04-18T23:36:17.996Z,90.18
2023-04-18T23:38:44.563Z,90.34
2023-04-18T23:41:11.250Z,91.35
2023-04-18T23:43:37.871Z,91.64
2023-04-18T23:46:04.540Z,91.08
2023-04-18T23:48:31.241Z,91.75
2023-04-18T23:50:57.927Z,92.10
2023-04-18T23:53:25.110Z,91.31
2023-04-18T23:55:53.106Z,90.31
2023-04-18T23:58:19.719Z,91.37
